createdAt,value
2022-09-06T07:28:05.879Z,63.29
2022-09-06T07:29:11.950Z,62.05
2022-09-06T07:30:14.126Z,60.54
2022-09-06T07:32:36.966Z,59.53
2022-09-06T07:33:38.946Z,59.65
2022-09-06T07:34:44.571Z,59.33
2022-09-06T07:35:59.740Z,58.34
2022-09-06T07:37:01.230Z,57.52
2022-09-06T07:38:03.153Z,57.47
2022-09-06T07:39:04.582Z,57.63
2022-09-06T07:54:07.080Z,56.45
2022-09-06T07:55:18.515Z,55.51
2022-09-06T07:56:21.857Z,55.01
2022-09-06T07:57:23.821Z,54.51
2022-09-06T07:58:25.288Z,54.02
2022-09-06T07:59:27.445Z,52.15
2022-09-06T08:00:28.857Z,53.04
2022-09-06T08:01:34.467Z,54.22
2022-09-06T08:02:39.447Z,53.79
2022-09-06T08:03:40.864Z,54.81
2022-09-06T08:04:42.560Z,54.69
2022-09-06T08:13:58.084Z,52.64
2022-09-06T08:14:59.517Z,52.58
2022-09-06T08:16:06.633Z,52.24
2022-09-06T08:17:08.059Z,50.91
2022-09-06T08:18:13.923Z,51.09
2022-09-06T08:19:15.519Z,53.28
2022-09-06T08:20:17.752Z,53.35
2022-09-06T08:21:20.335Z,52.42
2022-09-06T08:22:21.774Z,52.42
2022-09-06T08:23:23.201Z,52.58
2022-09-06T08:24:24.710Z,52.03
2022-09-06T08:25:26.111Z,51.11
2022-09-06T08:26:28.996Z,50.74
2022-09-06T08:27:30.396Z,51.03
2022-09-06T08:28:35.617Z,52.50
2022-09-06T08:29:37.043Z,52.79
2022-09-06T08:30:38.443Z,51.64
2022-09-06T08:31:42.716Z,52.29
2022-09-06T08:32:44.218Z,52.19
2022-09-06T08:33:47.826Z,52.30
2022-09-06T08:34:49.639Z,52.07
2022-09-06T08:35:58.635Z,52.03
2022-09-06T08:37:00.032Z,51.38
2022-09-06T08:38:01.451Z,51.35
2022-09-06T08:39:05.952Z,51.67
2022-09-06T08:40:08.032Z,51.30
2022-09-06T08:41:33.474Z,52.71
2022-09-06T08:42:39.808Z,53.03
2022-09-06T08:49:05.194Z,52.08
2022-09-06T08:50:07.559Z,51.45
2022-09-06T08:51:38.541Z,52.58
2022-09-06T08:53:15.553Z,53.32
2022-09-06T08:54:40.348Z,52.60
2022-09-06T08:55:51.191Z,54.32
2022-09-06T08:57:04.490Z,54.05
2022-09-06T08:58:17.845Z,54.74
2022-09-06T08:59:20.313Z,54.44
2022-09-06T09:00:27.074Z,53.70
2022-09-06T09:01:37.922Z,53.15
2022-09-06T09:02:51.713Z,53.04
2022-09-06T09:03:58.360Z,52.42
2022-09-06T09:05:04.257Z,53.71
2022-09-06T09:06:12.354Z,53.26
2022-09-06T09:07:36.787Z,52.59
2022-09-06T09:08:44.319Z,52.01
2022-09-06T09:09:46.095Z,52.07
2022-09-06T09:10:50.454Z,53.04
2022-09-06T09:11:52.108Z,52.87
2022-09-06T09:12:53.537Z,52.23
2022-09-06T09:13:59.162Z,52.29
2022-09-06T09:15:06.664Z,53.40
2022-09-06T09:16:08.245Z,53.39
2022-09-06T09:17:20.360Z,54.31
2022-09-06T09:18:26.934Z,53.74
2022-09-06T09:19:31.637Z,53.65
2022-09-06T09:20:33.148Z,52.78
2022-09-06T09:21:37.500Z,52.55
2022-09-06T09:22:40.497Z,53.02
2022-09-06T09:23:41.916Z,52.32
2022-09-06T09:24:43.495Z,52.69
2022-09-06T09:38:52.762Z,48.04
2022-09-06T09:39:56.887Z,47.91
2022-09-06T09:41:01.910Z,47.73
2022-09-06T09:42:03.696Z,46.88
2022-09-06T09:43:17.945Z,45.98
2022-09-06T09:44:19.999Z,45.91
2022-09-06T09:45:29.243Z,47.10
2022-09-06T09:46:33.695Z,47.71
2022-09-06T09:47:35.177Z,47.76
2022-09-06T09:48:37.395Z,48.84
2022-09-06T09:49:38.764Z,48.51
2022-09-06T09:50:40.169Z,48.65
2022-09-06T09:51:48.590Z,48.61
2022-09-06T09:52:49.943Z,48.13
2022-09-06T09:53:54.083Z,47.45
2022-09-06T09:55:02.257Z,47.38
2022-09-06T10:01:29.392Z,48.27
2022-09-06T10:02:36.000Z,46.90
2022-09-06T10:05:04.253Z,46.50
2022-09-06T10:07:33.545Z,48.59
2022-09-06T10:08:43.681Z,48.51
2022-09-06T10:09:57.421Z,47.75
2022-09-06T10:10:58.841Z,47.09
2022-09-06T10:12:00.392Z,47.22
2022-09-06T10:13:12.482Z,47.36
2022-09-06T10:14:32.546Z,47.83
2022-09-06T10:15:39.537Z,48.21
2022-09-06T10:16:44.792Z,48.32
2022-09-06T10:17:52.546Z,48.32
2022-09-06T10:18:54.045Z,48.34
2022-09-06T10:19:56.140Z,48.84
2022-09-06T10:21:15.987Z,48.86
2022-09-06T10:22:26.724Z,48.72
2022-09-06T10:25:14.203Z,48.49
2022-09-06T10:39:58.954Z,49.56
2022-09-06T10:41:11.464Z,49.13
2022-09-06T10:42:25.881Z,49.14
2022-09-06T10:43:38.567Z,48.89
2022-09-06T10:44:42.550Z,48.84
2022-09-06T10:46:02.509Z,48.63
2022-09-06T10:47:16.702Z,48.58
2022-09-06T10:54:04.233Z,46.39
2022-09-06T10:55:10.778Z,45.16
2022-09-06T10:56:21.037Z,45.31
2022-09-06T10:59:37.836Z,45.00
2022-09-06T11:00:47.275Z,44.60
2022-09-06T11:02:12.921Z,44.00
2022-09-06T11:03:58.491Z,43.03
2022-09-06T11:18:13.744Z,39.06
2022-09-06T11:19:33.022Z,39.71
2022-09-06T11:20:44.595Z,41.27
2022-09-06T11:22:07.961Z,43.68
2022-09-06T11:23:12.128Z,43.32
2022-09-06T11:24:22.429Z,43.55
2022-09-06T11:25:38.704Z,44.44
2022-09-06T11:26:55.441Z,44.64
2022-09-06T11:28:00.982Z,46.64
2022-09-06T11:42:07.144Z,48.61
2022-09-06T11:43:12.592Z,49.22
2022-09-06T11:44:52.194Z,50.11
2022-09-06T11:59:47.654Z,52.24
2022-09-06T12:01:13.915Z,52.22
2022-09-06T12:02:34.907Z,53.15
2022-09-06T12:21:52.170Z,55.71
2022-09-06T12:22:54.681Z,55.66
2022-09-06T12:49:47.451Z,54.58
2022-09-06T12:51:00.963Z,56.23
2022-09-06T12:52:19.151Z,57.46
2022-09-06T12:53:24.895Z,57.67
2022-09-06T13:10:46.728Z,59.41
2022-09-06T13:11:55.590Z,58.28
2022-09-06T13:43:29.639Z,75.44
2022-09-06T14:24:00.904Z,88.28
2022-09-06T14:50:20.344Z,78.39
2022-09-06T14:51:23.173Z,83.11
2022-09-06T15:01:13.703Z,89.98
2022-09-06T15:02:15.228Z,89.69
2022-09-06T15:03:17.388Z,89.49
2022-09-06T15:04:19.081Z,88.96
2022-09-06T15:05:23.937Z,88.04
2022-09-06T15:06:27.263Z,82.08
2022-09-06T15:07:28.944Z,79.02
2022-09-06T15:08:30.529Z,81.97
2022-09-06T15:09:32.168Z,84.01
2022-09-06T15:10:37.569Z,85.97
2022-09-06T15:11:40.565Z,86.81
2022-09-06T15:12:42.031Z,86.94
2022-09-06T15:13:43.771Z,86.18
2022-09-06T15:14:48.134Z,84.18
2022-09-06T15:15:49.678Z,82.63
2022-09-06T15:16:55.794Z,81.21
2022-09-06T15:17:58.319Z,82.40
2022-09-06T15:19:00.132Z,84.12
2022-09-06T15:20:02.145Z,83.18
2022-09-06T15:21:15.694Z,82.83
2022-09-06T15:22:17.169Z,82.85
2022-09-06T15:23:26.049Z,83.23
2022-09-06T15:24:28.881Z,79.10
2022-09-06T15:25:30.317Z,74.36
2022-09-06T15:26:35.332Z,72.15
2022-09-06T15:27:36.845Z,69.97
2022-09-06T15:28:40.117Z,68.93
2022-09-06T15:29:42.521Z,71.14
2022-09-06T15:30:44.007Z,71.26
2022-09-06T15:31:51.328Z,73.43
2022-09-06T15:32:53.085Z,73.39
2022-09-06T15:33:54.936Z,73.73
2022-09-06T15:35:04.332Z,74.35
2022-09-06T15:36:08.458Z,75.06
2022-09-06T15:37:10.399Z,76.74
2022-09-06T15:38:12.336Z,76.87
2022-09-06T15:39:14.392Z,77.02
2022-09-06T15:40:16.239Z,78.36
2022-09-06T15:41:19.657Z,77.26
2022-09-06T15:53:48.761Z,79.77
2022-09-06T15:55:08.684Z,78.50
2022-09-06T15:56:12.981Z,79.15
2022-09-06T16:05:12.980Z,81.72
2022-09-06T16:07:25.764Z,85.95
2022-09-06T16:17:18.757Z,87.66
2022-09-06T16:18:20.642Z,85.94
2022-09-06T16:19:22.159Z,86.39
2022-09-06T16:27:38.818Z,83.85
2022-09-06T16:28:40.283Z,83.80
2022-09-06T16:29:44.774Z,84.32
2022-09-06T16:30:46.526Z,84.07
2022-09-06T16:31:48.452Z,84.26
2022-09-06T16:57:02.726Z,84.23
2022-09-06T16:58:04.150Z,86.24
2022-09-06T17:14:27.397Z,90.65
